createdAt,value
2023-01-13T00:00:22.208Z,28.02
2023-01-13T00:02:52.653Z,27.99
2023-01-13T00:05:22.846Z,27.89
2023-01-13T00:07:52.292Z,27.92
2023-01-13T00:10:22.102Z,27.74
2023-01-13T00:12:52.731Z,27.76
2023-01-13T00:15:22.906Z,27.81
2023-01-13T00:17:53.201Z,27.78
2023-01-13T00:20:23.740Z,27.83
2023-01-13T00:22:54.022Z,27.82
2023-01-13T00:25:24.339Z,27.78
2023-01-13T00:27:54.493Z,27.65
2023-01-13T00:30:24.678Z,27.69
2023-01-13T00:32:55.055Z,27.85
2023-01-13T00:35:25.293Z,27.92
2023-01-13T00:37:55.468Z,27.79
2023-01-13T00:40:25.641Z,27.72
2023-01-13T00:43:13.846Z,27.81
2023-01-13T00:45:45.096Z,27.83
2023-01-13T00:48:15.244Z,27.74
2023-01-13T00:50:45.483Z,27.61
2023-01-13T00:53:16.066Z,27.48
2023-01-13T00:55:46.997Z,27.55
2023-01-13T00:58:17.163Z,27.53
2023-01-13T01:00:47.066Z,27.53
2023-01-13T01:03:17.220Z,27.45
2023-01-13T01:05:47.450Z,27.27
2023-01-13T01:08:17.417Z,27.18
2023-01-13T01:10:46.878Z,27.15
2023-01-13T01:13:18.691Z,27.10
2023-01-13T01:15:49.405Z,26.98
2023-01-13T01:18:19.629Z,26.97
2023-01-13T01:20:49.834Z,26.90
2023-01-13T01:23:19.528Z,26.91
2023-01-13T01:25:49.477Z,26.88
2023-01-13T01:28:21.797Z,26.92
2023-01-13T01:30:52.778Z,26.98
2023-01-13T01:33:23.575Z,27.01
2023-01-13T01:35:54.502Z,27.04
2023-01-13T01:38:24.653Z,27.18
2023-01-13T01:40:54.090Z,27.25
2023-01-13T01:44:08.144Z,27.30
2023-01-13T01:46:38.427Z,27.21
2023-01-13T01:49:20.561Z,27.25
2023-01-13T01:52:11.959Z,27.27
2023-01-13T01:54:54.154Z,27.27
2023-01-13T01:57:31.503Z,27.24
2023-01-13T02:00:02.657Z,27.21
2023-01-13T02:02:43.349Z,26.92
2023-01-13T02:05:14.038Z,26.92
2023-01-13T02:07:47.472Z,27.08
2023-01-13T02:10:21.510Z,27.22
2023-01-13T02:12:54.118Z,27.25
2023-01-13T02:15:49.818Z,27.25
2023-01-13T02:18:39.602Z,27.27
2023-01-13T02:21:27.941Z,27.27
2023-01-13T02:24:24.768Z,27.20
2023-01-13T02:27:22.942Z,27.24
2023-01-13T02:30:20.625Z,27.21
2023-01-13T02:33:33.387Z,27.21
2023-01-13T02:36:38.542Z,27.18
2023-01-13T02:39:42.945Z,27.11
2023-01-13T02:42:41.868Z,27.00
2023-01-13T02:45:18.179Z,26.97
2023-01-13T02:47:51.447Z,26.88
2023-01-13T02:50:30.487Z,26.81
2023-01-13T02:53:06.867Z,26.86
2023-01-13T02:55:41.896Z,26.94
2023-01-13T02:58:17.017Z,27.02
2023-01-13T03:00:48.378Z,26.97
2023-01-13T03:03:18.709Z,26.98
2023-01-13T03:05:53.154Z,27.02
2023-01-13T03:08:48.837Z,27.00
2023-01-13T03:11:21.770Z,27.02
2023-01-13T03:14:03.677Z,26.98
2023-01-13T03:16:48.685Z,26.79
2023-01-13T03:19:32.665Z,26.65
2023-01-13T03:22:17.371Z,26.54
2023-01-13T03:24:56.746Z,26.46
2023-01-13T03:27:39.137Z,26.51
2023-01-13T03:30:11.091Z,26.65
2023-01-13T03:32:45.397Z,26.73
2023-01-13T03:35:41.186Z,26.71
2023-01-13T03:38:13.636Z,26.64
2023-01-13T03:40:52.213Z,26.67
2023-01-13T03:43:51.665Z,26.67
2023-01-13T03:46:49.188Z,26.63
2023-01-13T03:49:23.779Z,26.61
2023-01-13T03:51:58.718Z,26.53
2023-01-13T03:54:32.178Z,26.50
2023-01-13T03:57:11.825Z,26.51
2023-01-13T03:59:45.479Z,26.49
2023-01-13T04:02:18.630Z,26.47
2023-01-13T04:05:01.692Z,26.43
2023-01-13T04:07:56.632Z,26.39
2023-01-13T04:10:46.272Z,26.39
2023-01-13T04:13:23.736Z,26.36
2023-01-13T04:16:01.450Z,26.35
2023-01-13T04:18:33.274Z,26.35
2023-01-13T04:21:04.332Z,26.39
2023-01-13T04:23:35.077Z,26.37
2023-01-13T04:26:05.416Z,26.32
2023-01-13T04:28:38.039Z,26.35
2023-01-13T04:31:08.911Z,26.30
2023-01-13T04:33:39.212Z,26.19
2023-01-13T04:36:09.861Z,25.96
2023-01-13T04:38:40.329Z,25.92
2023-01-13T04:41:10.543Z,26.09
2023-01-13T04:43:40.769Z,26.23
2023-01-13T04:46:11.023Z,26.22
2023-01-13T04:48:41.248Z,26.25
2023-01-13T04:51:11.436Z,26.33
2023-01-13T04:53:41.651Z,26.33
2023-01-13T04:56:11.971Z,26.36
2023-01-13T04:58:42.191Z,26.35
2023-01-13T05:01:12.641Z,26.33
2023-01-13T05:03:42.795Z,26.32
2023-01-13T05:06:12.717Z,26.32
2023-01-13T05:08:42.191Z,26.32
2023-01-13T05:11:30.158Z,26.28
2023-01-13T05:14:18.512Z,26.22
2023-01-13T05:17:04.486Z,26.19
2023-01-13T05:19:36.957Z,26.22
2023-01-13T05:22:25.489Z,26.25
2023-01-13T05:25:13.562Z,26.23
2023-01-13T05:27:43.736Z,26.22
2023-01-13T05:30:13.434Z,26.23
2023-01-13T05:32:43.949Z,26.19
2023-01-13T05:35:14.208Z,26.20
2023-01-13T05:37:45.783Z,26.19
2023-01-13T05:40:37.003Z,26.20
2023-01-13T05:43:21.865Z,26.15
2023-01-13T05:45:58.510Z,26.10
2023-01-13T05:48:34.498Z,26.10
2023-01-13T05:51:07.475Z,26.05
2023-01-13T05:53:38.138Z,25.86
2023-01-13T05:56:09.717Z,25.77
2023-01-13T05:58:40.367Z,25.88
2023-01-13T06:01:12.108Z,25.92
2023-01-13T06:03:42.481Z,25.92
2023-01-13T06:06:12.769Z,25.88
2023-01-13T06:08:43.030Z,25.86
2023-01-13T06:11:13.233Z,25.84
2023-01-13T06:13:43.318Z,25.79
2023-01-13T06:16:13.634Z,25.78
2023-01-13T06:18:43.966Z,25.77
2023-01-13T06:21:14.265Z,25.72
2023-01-13T06:23:44.585Z,25.71
2023-01-13T06:26:22.312Z,25.68
2023-01-13T06:28:52.683Z,25.65
2023-01-13T06:31:23.192Z,25.57
2023-01-13T06:33:58.366Z,25.57
2023-01-13T06:36:33.865Z,25.62
2023-01-13T06:39:05.872Z,25.65
2023-01-13T06:41:54.406Z,25.64
2023-01-13T06:44:26.093Z,25.65
2023-01-13T06:46:56.282Z,25.67
2023-01-13T06:49:26.601Z,25.64
2023-01-13T06:51:56.733Z,25.61
2023-01-13T06:54:27.829Z,25.62
2023-01-13T06:56:58.069Z,25.58
2023-01-13T06:59:28.460Z,25.58
2023-01-13T07:01:58.782Z,25.57
2023-01-13T07:04:29.096Z,25.52
2023-01-13T07:06:58.550Z,25.54
2023-01-13T07:09:28.403Z,25.51
2023-01-13T07:11:58.647Z,25.50
2023-01-13T07:14:47.101Z,25.52
2023-01-13T07:17:17.576Z,25.48
2023-01-13T07:19:47.771Z,25.51
2023-01-13T07:22:18.003Z,25.35
2023-01-13T07:24:48.337Z,25.19
2023-01-13T07:27:18.458Z,25.14
2023-01-13T07:29:48.739Z,25.24
2023-01-13T07:32:19.013Z,25.33
2023-01-13T07:34:49.371Z,25.38
2023-01-13T07:37:19.768Z,25.41
2023-01-13T07:39:51.397Z,25.40
2023-01-13T07:42:39.439Z,25.35
2023-01-13T07:45:12.411Z,25.07
2023-01-13T07:47:43.285Z,25.06
2023-01-13T07:50:13.571Z,25.21
2023-01-13T07:52:43.874Z,25.26
2023-01-13T07:55:14.148Z,25.24
2023-01-13T07:57:44.427Z,25.17
2023-01-13T08:00:15.310Z,25.02
2023-01-13T08:02:45.693Z,24.97
2023-01-13T08:05:15.810Z,25.02
2023-01-13T08:07:45.308Z,24.94
2023-01-13T08:10:15.124Z,24.89
2023-01-13T08:13:03.038Z,24.86
2023-01-13T08:15:36.261Z,24.73
2023-01-13T08:18:06.490Z,24.84
2023-01-13T08:20:36.734Z,24.77
2023-01-13T08:23:07.455Z,24.75
2023-01-13T08:25:37.914Z,24.83
2023-01-13T08:28:07.752Z,24.65
2023-01-13T08:30:37.668Z,24.66
2023-01-13T08:33:10.955Z,24.73
2023-01-13T08:35:42.778Z,24.75
2023-01-13T08:38:13.319Z,24.69
2023-01-13T08:40:43.562Z,24.72
2023-01-13T08:43:13.776Z,24.63
2023-01-13T08:45:43.919Z,24.55
2023-01-13T08:48:14.394Z,24.62
2023-01-13T08:50:44.606Z,24.63
2023-01-13T08:53:14.880Z,24.42
2023-01-13T08:55:45.190Z,24.40
2023-01-13T08:58:16.281Z,24.58
2023-01-13T09:00:46.722Z,24.43
2023-01-13T09:03:16.981Z,24.47
2023-01-13T09:05:47.212Z,24.65
2023-01-13T09:08:17.563Z,24.58
2023-01-13T09:10:47.908Z,24.56
2023-01-13T09:13:18.432Z,24.51
2023-01-13T09:15:48.880Z,24.63
2023-01-13T09:18:19.451Z,24.76
2023-01-13T09:20:49.619Z,24.91
2023-01-13T09:23:19.949Z,24.96
2023-01-13T09:26:11.065Z,25.14
2023-01-13T09:28:41.278Z,25.19
2023-01-13T09:31:11.515Z,25.14
2023-01-13T09:33:59.857Z,25.27
2023-01-13T09:36:30.127Z,25.41
2023-01-13T09:38:59.729Z,25.54
2023-01-13T09:41:50.644Z,25.60
2023-01-13T09:44:30.929Z,25.58
2023-01-13T09:47:06.349Z,25.64
2023-01-13T09:49:38.121Z,25.69
2023-01-13T09:52:17.233Z,25.77
2023-01-13T09:55:03.263Z,25.91
2023-01-13T09:57:38.446Z,25.89
2023-01-13T10:00:15.401Z,25.82
2023-01-13T10:03:03.081Z,25.75
2023-01-13T10:05:40.557Z,25.62
2023-01-13T10:08:37.728Z,25.77
2023-01-13T10:11:47.450Z,25.79
2023-01-13T10:14:26.446Z,25.85
2023-01-13T10:17:02.324Z,25.88
2023-01-13T10:19:52.050Z,26.03
2023-01-13T10:22:58.825Z,26.15
2023-01-13T10:25:59.050Z,26.23
2023-01-13T10:28:29.362Z,26.26
2023-01-13T10:31:00.830Z,26.29
2023-01-13T10:33:31.245Z,26.32
2023-01-13T10:36:13.621Z,26.39
2023-01-13T10:38:51.813Z,26.51
2023-01-13T10:41:27.567Z,26.54
2023-01-13T10:44:01.226Z,26.61
2023-01-13T10:46:36.519Z,26.51
2023-01-13T10:49:34.305Z,26.37
2023-01-13T10:52:06.388Z,26.50
2023-01-13T10:54:37.505Z,26.77
2023-01-13T10:57:28.121Z,26.80
2023-01-13T10:59:58.447Z,26.95
2023-01-13T11:02:34.133Z,27.12
2023-01-13T11:05:33.418Z,27.34
2023-01-13T11:08:03.736Z,27.56
2023-01-13T11:10:35.304Z,27.45
2023-01-13T11:13:31.178Z,27.52
2023-01-13T11:16:20.514Z,27.70
2023-01-13T11:19:15.792Z,27.90
2023-01-13T11:21:56.792Z,28.07
2023-01-13T11:24:57.333Z,28.16
2023-01-13T11:27:36.144Z,28.48
2023-01-13T11:30:30.918Z,28.65
2023-01-13T11:33:12.946Z,28.71
2023-01-13T11:36:04.272Z,28.84
2023-01-13T11:38:44.676Z,28.98
2023-01-13T11:42:08.871Z,29.30
2023-01-13T11:45:12.839Z,29.29
2023-01-13T11:47:43.051Z,29.08
2023-01-13T11:50:32.495Z,29.69
2023-01-13T11:53:31.368Z,29.97
2023-01-13T11:56:28.499Z,29.64
2023-01-13T11:59:10.913Z,29.35
2023-01-13T12:01:56.277Z,29.19
2023-01-13T12:04:49.615Z,29.03
2023-01-13T12:07:41.923Z,29.05
2023-01-13T12:10:33.393Z,29.13
2023-01-13T12:13:30.694Z,29.16
2023-01-13T12:16:38.915Z,29.05
2023-01-13T12:19:31.421Z,28.95
2023-01-13T12:22:26.911Z,28.94
2023-01-13T12:25:22.082Z,28.85
2023-01-13T12:28:08.887Z,28.95
2023-01-13T12:30:53.315Z,29.15
2023-01-13T12:33:57.123Z,29.42
2023-01-13T12:36:30.623Z,29.16
2023-01-13T12:39:07.797Z,29.63
2023-01-13T12:42:05.496Z,29.97
2023-01-13T12:44:35.676Z,30.46
2023-01-13T12:47:06.172Z,30.46
2023-01-13T12:49:37.767Z,30.34
2023-01-13T12:52:16.529Z,30.38
2023-01-13T12:54:46.650Z,30.75
2023-01-13T12:57:28.251Z,30.59
2023-01-13T13:00:07.276Z,30.13
2023-01-13T13:02:43.533Z,29.63
2023-01-13T13:05:16.791Z,30.03
2023-01-13T13:08:11.509Z,30.49
2023-01-13T13:10:49.287Z,30.97
2023-01-13T13:13:49.586Z,30.93
2023-01-13T13:16:46.399Z,30.96
2023-01-13T13:19:22.450Z,30.99
2023-01-13T13:22:13.767Z,31.33
2023-01-13T13:24:45.045Z,31.51
2023-01-13T13:27:33.419Z,31.29
2023-01-13T13:30:13.873Z,31.17
2023-01-13T13:32:57.749Z,31.15
2023-01-13T13:35:43.363Z,31.19
2023-01-13T13:38:48.860Z,31.27
2023-01-13T13:41:40.373Z,31.34
2023-01-13T13:44:40.258Z,31.23
2023-01-13T13:47:12.972Z,31.46
2023-01-13T13:49:54.810Z,31.96
2023-01-13T13:52:38.247Z,32.72
2023-01-13T13:55:17.300Z,33.04
2023-01-13T13:57:54.019Z,33.40
2023-01-13T14:00:31.766Z,32.86
2023-01-13T14:03:04.840Z,32.67
2023-01-13T14:05:37.155Z,32.59
2023-01-13T14:08:19.866Z,32.66
2023-01-13T14:10:50.490Z,33.16
2023-01-13T14:13:26.283Z,33.06
2023-01-13T14:16:01.158Z,33.34
2023-01-13T14:18:43.570Z,33.68
2023-01-13T14:21:28.814Z,33.78
2023-01-13T14:24:12.022Z,33.31
2023-01-13T14:26:42.610Z,33.13
2023-01-13T14:29:20.230Z,33.28
2023-01-13T14:31:53.265Z,32.99
2023-01-13T14:34:28.816Z,32.86
2023-01-13T14:37:04.958Z,32.80
2023-01-13T14:39:38.966Z,33.69
2023-01-13T14:42:17.943Z,33.81
2023-01-13T14:44:51.236Z,33.89
2023-01-13T14:47:34.907Z,34.20
2023-01-13T14:50:12.458Z,34.52
2023-01-13T14:52:58.231Z,34.90
2023-01-13T14:55:38.657Z,34.83
2023-01-13T14:58:23.859Z,34.64
2023-01-13T15:01:14.973Z,34.59
2023-01-13T15:03:45.282Z,34.33
2023-01-13T15:06:27.121Z,34.31
2023-01-13T15:08:57.375Z,33.99
2023-01-13T15:11:30.602Z,34.25
2023-01-13T15:14:02.955Z,34.57
2023-01-13T15:16:34.959Z,34.10
2023-01-13T15:19:05.602Z,33.74
2023-01-13T15:21:36.427Z,34.64
2023-01-13T15:24:07.087Z,34.27
2023-01-13T15:26:37.521Z,34.52
2023-01-13T15:29:15.691Z,34.98
2023-01-13T15:31:46.018Z,35.11
2023-01-13T15:34:16.143Z,35.07
2023-01-13T15:36:46.498Z,35.48
2023-01-13T15:39:16.710Z,35.62
2023-01-13T15:42:05.087Z,36.17
2023-01-13T15:44:53.280Z,36.53
2023-01-13T15:47:26.517Z,36.30
2023-01-13T15:49:56.971Z,36.41
2023-01-13T15:52:29.384Z,36.97
2023-01-13T15:54:59.613Z,37.56
2023-01-13T15:57:40.722Z,37.72
2023-01-13T16:00:22.825Z,37.76
2023-01-13T16:02:53.592Z,37.41
2023-01-13T16:05:23.854Z,36.57
2023-01-13T16:07:54.027Z,36.77
2023-01-13T16:10:27.558Z,36.07
2023-01-13T16:12:57.850Z,34.93
2023-01-13T16:15:27.807Z,34.26
2023-01-13T16:18:08.021Z,34.56
2023-01-13T16:20:57.395Z,35.11
2023-01-13T16:23:27.503Z,35.01
2023-01-13T16:25:57.698Z,34.74
2023-01-13T16:28:29.421Z,34.36
2023-01-13T16:30:59.635Z,33.99
2023-01-13T16:33:29.590Z,33.81
2023-01-13T16:36:11.862Z,33.37
2023-01-13T16:38:43.569Z,33.47
2023-01-13T16:41:13.826Z,33.16
2023-01-13T16:43:44.408Z,32.93
2023-01-13T16:46:39.779Z,32.84
2023-01-13T16:49:13.291Z,32.66
2023-01-13T16:51:44.140Z,32.51
2023-01-13T16:54:14.793Z,32.39
2023-01-13T16:56:45.586Z,32.19
2023-01-13T16:59:16.530Z,31.92
2023-01-13T17:01:46.919Z,31.67
2023-01-13T17:04:19.922Z,31.51
2023-01-13T17:06:59.007Z,31.03
2023-01-13T17:09:30.636Z,29.15
2023-01-13T17:12:01.011Z,27.34
2023-01-13T17:14:31.145Z,26.73
2023-01-13T17:17:01.252Z,26.05
2023-01-13T17:19:31.705Z,25.23
2023-01-13T17:22:02.312Z,25.07
2023-01-13T17:24:33.821Z,24.52
2023-01-13T17:27:04.766Z,24.21
2023-01-13T17:29:35.400Z,23.81
2023-01-13T17:32:05.925Z,23.82
2023-01-13T17:34:36.160Z,24.02
2023-01-13T17:37:06.440Z,24.19
2023-01-13T17:39:36.668Z,24.40
2023-01-13T17:42:07.029Z,23.88
2023-01-13T17:44:37.238Z,23.88
2023-01-13T17:47:08.605Z,24.18
2023-01-13T17:49:39.068Z,24.51
2023-01-13T17:52:09.063Z,24.63
2023-01-13T17:54:41.378Z,24.69
2023-01-13T17:57:11.918Z,24.65
2023-01-13T17:59:42.993Z,24.68
2023-01-13T18:02:14.306Z,24.68
2023-01-13T18:04:44.760Z,24.68
2023-01-13T18:07:14.988Z,24.62
2023-01-13T18:09:45.144Z,24.80
2023-01-13T18:12:15.722Z,24.89
2023-01-13T18:14:45.787Z,25.03
2023-01-13T18:17:15.715Z,24.96
2023-01-13T18:20:04.321Z,24.89
2023-01-13T18:22:52.162Z,24.69
2023-01-13T18:25:40.527Z,24.69
2023-01-13T18:28:10.709Z,24.97
2023-01-13T18:30:41.084Z,25.10
2023-01-13T18:33:11.296Z,25.13
2023-01-13T18:35:41.679Z,25.23
2023-01-13T18:38:17.711Z,25.33
2023-01-13T18:40:47.969Z,25.35
2023-01-13T18:43:18.230Z,25.35
2023-01-13T18:45:52.562Z,25.34
2023-01-13T18:48:22.659Z,25.37
2023-01-13T18:50:52.605Z,25.30
2023-01-13T18:53:22.774Z,25.31
2023-01-13T18:55:56.320Z,25.44
2023-01-13T18:58:26.644Z,25.47
2023-01-13T19:01:04.987Z,25.50
2023-01-13T19:03:35.346Z,25.41
2023-01-13T19:06:08.845Z,25.40
2023-01-13T19:08:39.432Z,25.37
2023-01-13T19:11:09.681Z,25.30
2023-01-13T19:13:39.876Z,25.33
2023-01-13T19:16:11.437Z,25.40
2023-01-13T19:18:41.619Z,25.41
2023-01-13T19:21:12.179Z,25.26
2023-01-13T19:23:42.816Z,25.23
2023-01-13T19:26:14.240Z,25.31
2023-01-13T19:28:44.457Z,25.40
2023-01-13T19:31:14.175Z,25.42
2023-01-13T19:33:44.960Z,25.57
2023-01-13T19:36:16.368Z,25.45
2023-01-13T19:38:46.652Z,25.42
2023-01-13T19:41:42.630Z,25.33
2023-01-13T19:44:34.108Z,25.21
2023-01-13T19:47:05.161Z,25.19
2023-01-13T19:49:35.701Z,25.17
2023-01-13T19:52:06.184Z,25.11
2023-01-13T19:54:36.696Z,25.09
2023-01-13T19:57:07.245Z,25.11
2023-01-13T19:59:42.164Z,25.07
2023-01-13T20:02:29.717Z,24.94
2023-01-13T20:05:02.049Z,25.09
2023-01-13T20:07:33.273Z,25.21
2023-01-13T20:10:03.959Z,25.23
2023-01-13T20:12:34.129Z,25.23
2023-01-13T20:15:04.471Z,25.37
2023-01-13T20:17:34.699Z,25.52
2023-01-13T20:20:06.488Z,25.72
2023-01-13T20:22:38.606Z,25.89
2023-01-13T20:25:09.940Z,26.08
2023-01-13T20:27:41.080Z,25.93
2023-01-13T20:30:14.744Z,25.77
2023-01-13T20:32:46.012Z,25.74
2023-01-13T20:35:16.782Z,25.44
2023-01-13T20:37:47.076Z,25.40
2023-01-13T20:40:17.738Z,25.57
2023-01-13T20:42:48.464Z,25.67
2023-01-13T20:45:21.991Z,25.68
2023-01-13T20:47:52.183Z,25.64
2023-01-13T20:50:22.691Z,25.55
2023-01-13T20:52:53.793Z,25.47
2023-01-13T20:55:43.342Z,25.40
2023-01-13T20:58:13.976Z,25.40
2023-01-13T21:00:44.611Z,25.44
2023-01-13T21:03:15.106Z,25.41
2023-01-13T21:05:45.401Z,25.54
2023-01-13T21:08:15.781Z,25.44
2023-01-13T21:10:46.946Z,25.30
2023-01-13T21:13:35.396Z,25.21
2023-01-13T21:16:05.965Z,25.37
2023-01-13T21:18:54.396Z,25.20
2023-01-13T21:21:24.761Z,25.02
2023-01-13T21:23:55.394Z,24.93
2023-01-13T21:26:25.646Z,24.97
2023-01-13T21:29:03.578Z,24.89
2023-01-13T21:31:33.794Z,24.99
2023-01-13T21:34:03.415Z,25.09
2023-01-13T21:36:33.367Z,24.90
2023-01-13T21:39:03.592Z,25.06
2023-01-13T21:41:51.942Z,25.23
2023-01-13T21:44:42.636Z,25.38
2023-01-13T21:47:36.374Z,25.13
2023-01-13T21:50:10.590Z,25.02
2023-01-13T21:52:43.920Z,25.03
2023-01-13T21:55:30.141Z,25.16
2023-01-13T21:58:12.941Z,25.07
2023-01-13T22:00:46.563Z,24.90
2023-01-13T22:03:20.258Z,24.89
2023-01-13T22:05:58.075Z,24.99
2023-01-13T22:08:28.312Z,25.10
2023-01-13T22:10:58.641Z,24.87
2023-01-13T22:13:48.110Z,24.72
2023-01-13T22:16:20.075Z,24.79
2023-01-13T22:18:50.732Z,24.93
2023-01-13T22:21:21.227Z,24.79
2023-01-13T22:23:51.522Z,24.76
2023-01-13T22:26:22.046Z,24.76
2023-01-13T22:28:53.587Z,24.73
2023-01-13T22:31:25.049Z,24.69
2023-01-13T22:33:57.089Z,24.60
2023-01-13T22:36:27.999Z,24.52
2023-01-13T22:38:58.564Z,24.42
2023-01-13T22:41:28.808Z,24.33
2023-01-13T22:43:59.239Z,24.36
2023-01-13T22:46:29.466Z,24.47
2023-01-13T22:48:59.763Z,24.45
2023-01-13T22:51:31.679Z,24.29
2023-01-13T22:54:02.081Z,24.25
2023-01-13T22:56:32.496Z,24.30
2023-01-13T22:59:05.178Z,24.29
2023-01-13T23:01:37.176Z,24.32
2023-01-13T23:04:07.982Z,24.35
2023-01-13T23:06:38.352Z,24.29
2023-01-13T23:09:09.141Z,24.25
2023-01-13T23:11:39.676Z,24.26
2023-01-13T23:14:11.057Z,24.24
2023-01-13T23:16:42.949Z,24.26
2023-01-13T23:19:13.407Z,24.18
2023-01-13T23:21:43.810Z,24.15
2023-01-13T23:24:14.271Z,24.09
2023-01-13T23:26:44.566Z,24.12
2023-01-13T23:29:14.668Z,24.00
2023-01-13T23:31:44.803Z,23.93
2023-01-13T23:34:14.852Z,23.98
2023-01-13T23:36:45.684Z,23.91
2023-01-13T23:39:15.661Z,23.84
2023-01-13T23:41:45.660Z,24.00
2023-01-13T23:44:15.132Z,23.97
2023-01-13T23:46:45.147Z,23.77
2023-01-13T23:49:15.492Z,23.80
2023-01-13T23:51:45.695Z,23.90
2023-01-13T23:54:15.939Z,23.97
2023-01-13T23:56:46.376Z,23.94
2023-01-13T23:59:16.631Z,24.01
